Latest Weather Observations for Ballarat

IDV60801

Issued at 1:02 pm EST Friday 31 July 2015 (issued every 30 minutes, with the page automatically refreshed every 10 minutes)

About weather observations | Map of weather stations | Latest weather observations for VIC | Other Formats
Station Details ID: 089002 Name: BALLARAT AERODROME Lat: -37.51 Lon: 143.79 Height: 435.2 m
Data from the previous 72 hours. | See also: Recent months at Ballarat
Date/Time
EST
Temp
°C
App
Temp
°C
Dew
Point
Rel
Hum
%
Delta-T
°C
Wind Press
QNH
hPa
Press
MSL
hPa
Rain
since 9 am
mm
Dir
 
Spd
km/h
Gust
km/h
Spd
kts
Gust
kts
31/01:00pm 8.0 2.1 1.6 64 2.7 N 22 28 12 15 1018.4 1019.2 0.0
31/12:30pm 7.9 3.0 1.7 65 2.6 NNW 17 24 9 13 1018.9 1019.7 0.0
31/12:00pm 7.6 2.9 2.9 72 2.0 N 17 22 9 12 1019.4 1020.3 0.0
31/11:30am 6.7 2.7 2.6 75 1.7 NNW 13 15 7 8 1020.1 1021.0 0.0
31/11:00am 6.4 2.4 3.0 79 1.4 NNW 13 20 7 11 1020.6 1021.4 0.0
31/10:30am 5.8 2.1 4.6 92 0.5 NNW 13 17 7 9 1020.9 1021.7 0.0
31/10:00am 4.9 1.2 4.6 98 0.1 NNW 13 19 7 10 1020.9 1021.7 0.0
31/09:30am 4.0 0.6 4.0 100 0.0 NNW 11 13 6 7 1020.9 1021.7 0.0
31/09:00am 2.5 -0.2 2.5 100 0.0 NNE 6 9 3 5 1020.9 1021.7 2.8
31/08:54am 2.1 -1.3 2.1 100 0.0 NNE 9 11 5 6 1020.8 1021.6 2.6
31/08:36am 1.0 -1.6 1.0 100 0.0 NE 4 7 2 4 1020.9 1021.7 2.4
31/08:30am 0.4 -2.7 0.4 100 0.0 NE 6 9 3 5 1020.7 1021.5 2.4
31/08:00am -1.0 -4.8 -1.0 100 0.0 ENE 9 9 5 5 1020.2 1021.1 2.4
31/07:30am -0.7 -4.1 -0.7 100 0.0 ENE 7 7 4 4 1020.0 1020.9 2.4
31/07:00am -0.3 -3.7 -0.3 100 0.0 NE 7 9 4 5 1019.6 1020.5 2.4
31/06:30am -0.2 -2.2 -0.2 100 0.0 CALM 0 4 0 2 1019.6 1020.5 2.4
31/06:00am -0.2 -2.2 -0.3 99 0.0 CALM 0 0 0 0 1019.5 1020.4 2.4
31/05:30am -0.3 -2.3 -0.4 99 0.0 CALM 0 0 0 0 1019.2 1020.1 2.4
31/05:00am -0.5 -3.7 -0.6 99 0.0 NE 6 6 3 3 1019.1 1020.0 2.4
31/04:30am -0.8 -4.1 -0.9 99 0.0 NE 6 9 3 5 1019.0 1019.9 2.4
31/04:00am -0.3 -3.1 -0.4 99 0.0 W 4 6 2 3 1018.9 1019.7 2.4
31/03:30am 1.4 -1.5 1.3 99 0.0 WSW 6 9 3 5 1018.9 1019.7 2.4
31/03:00am 1.5 -1.4 1.4 99 0.0 SW 6 9 3 5 1018.9 1019.7 2.4
31/02:30am 1.6 -0.9 1.5 99 0.0 SSW 4 7 2 4 1018.9 1019.7 2.4
31/02:13am 1.9 -0.6 1.8 99 0.0 SSW 4 7 2 4 1018.9 1019.7 2.4
31/02:00am 1.8 -0.7 1.7 99 0.0 SSW 4 7 2 4 1018.7 1019.5 2.4
31/01:57am 1.8 -0.7 1.7 99 0.0 SSW 4 7 2 4 1018.7 1019.5 2.4
31/01:30am 2.7 -0.6 2.6 99 0.0 WSW 9 13 5 7 1018.6 1019.4 2.4
31/01:00am 3.0 0.2 2.9 99 0.0 WSW 7 9 4 5 1018.6 1019.4 2.4
31/12:30am 3.4 0.2 3.3 99 0.0 SW 9 15 5 8 1018.5 1019.3 2.4
31/12:00am 3.6 0.5 3.5 99 0.0 SW 9 13 5 7 1018.2 1019.0 2.4
 
Date/Time
EST
Temp
°C
App
Temp
°C
Dew
Point
Rel
Hum
%
Delta-T
°C
Wind Press
QNH
hPa
Press
MSL
hPa
Rain
since 9 am
mm
Dir
 
Spd
km/h
Gust
km/h
Spd
kts
Gust
kts
30/11:30pm 3.7 0.6 3.6 99 0.0 W 9 13 5 7 1018.2 1019.0 2.4
30/11:00pm 3.7 1.2 3.6 99 0.0 WSW 6 9 3 5 1017.9 1018.8 2.4
30/10:30pm 4.2 1.8 4.1 99 0.0 W 6 11 3 6 1017.9 1018.8 2.4
30/10:00pm 5.3 1.7 5.2 99 0.0 WSW 13 17 7 9 1017.6 1018.5 2.4
30/09:30pm 5.9 2.9 5.8 99 0.0 W 11 17 6 9 1017.5 1018.4 2.4
30/09:13pm 6.1 2.7 6.0 99 0.0 WSW 13 19 7 10 1017.3 1018.2 2.4
30/09:02pm 6.2 1.7 6.1 99 0.0 WSW 19 30 10 16 1017.3 1018.2 2.4
30/09:00pm 6.2 1.5 6.1 99 0.0 WSW 20 30 11 16 1017.3 1018.2 2.4
30/08:49pm 6.3 2.6 6.3 100 0.0 W 15 32 8 17 1017.4 1018.3 2.2
30/08:30pm 6.2 1.5 6.1 99 0.0 N 20 30 11 16 1016.6 1017.4 0.8
30/08:00pm 6.3 0.5 6.2 99 0.0 N 26 33 14 18 1015.7 1016.5 0.2
30/07:30pm 6.4 -0.6 6.1 98 0.1 N 32 41 17 22 1015.2 1016.1 0.0
30/07:00pm 6.5 -1.4 6.2 98 0.1 N 37 52 20 28 1014.7 1015.5 0.0
30/06:59pm 6.5 -1.4 6.2 98 0.1 N 37 52 20 28 1014.7 1015.5 0.0
30/06:30pm 6.6 -1.6 4.9 89 0.8 N 37 48 20 26 1014.7 1015.5 0.0
30/06:00pm 6.7 -1.9 4.5 86 1.0 N 39 56 21 30 1014.0 1014.8 0.0
30/05:30pm 6.7 -1.5 4.7 87 0.9 N 37 54 20 29 1013.9 1014.7 0.0
30/05:28pm 6.7 -1.1 4.7 87 0.9 N 35 54 19 29 1013.9 1014.7 0.0
30/05:00pm 6.7 -1.1 4.7 87 0.9 N 35 44 19 24 1013.8 1014.6 0.0
30/04:30pm 7.4 -1.7 4.2 80 1.4 N 41 50 22 27 1013.4 1014.2 0.0
30/04:00pm 7.5 -2.1 4.6 82 1.3 N 44 57 24 31 1013.0 1013.8 0.0
30/03:30pm 7.2 -1.7 4.9 85 1.0 N 41 54 22 29 1013.6 1014.4 0.0
30/03:00pm 6.8 -2.8 4.6 86 1.0 N 44 57 24 31 1013.4 1014.2 0.0
30/02:33pm 6.3 -4.0 4.5 88 0.8 N 48 67 26 36 1014.0 1014.8 0.0
30/02:30pm 6.3 -4.5 4.3 87 0.9 N 50 67 27 36 1014.0 1014.8 0.0
30/02:00pm 6.4 -3.3 4.1 85 1.0 N 44 56 24 30 1014.7 1015.5 0.0
30/01:30pm 6.8 -3.2 4.1 83 1.2 N 46 63 25 34 1014.8 1015.6 0.0
30/01:02pm 6.5 -3.1 4.2 85 1.0 N 44 63 24 34 1014.9 1015.7 0.0
30/01:00pm 6.4 -3.6 4.1 85 1.0 N 46 63 25 34 1014.9 1015.7 0.0
30/12:42pm 6.1 -3.4 3.9 86 1.0 N 43 63 23 34 1015.0 1015.8 0.0
30/12:30pm 5.9 -3.2 4.1 88 0.8 N 41 54 22 29 1015.8 1016.6 0.0
30/12:00pm 5.3 -4.2 4.1 92 0.5 NNE 43 54 23 29 1016.5 1017.3 0.0
30/11:30am 5.0 -4.6 3.3 89 0.7 N 43 54 23 29 1017.6 1018.5 0.0
30/11:00am 5.5 -3.6 3.8 89 0.7 N 41 56 22 30 1018.5 1019.3 0.0
30/10:30am 5.7 -3.5 3.7 87 0.9 NNE 41 56 22 30 1019.2 1020.1 0.0
30/10:00am 5.8 -3.3 4.0 88 0.8 N 41 54 22 29 1019.4 1020.3 0.0
30/09:30am 4.3 -4.1 3.7 96 0.3 NNE 37 50 20 27 1019.8 1020.7 0.0
30/09:00am 4.2 -3.8 3.8 97 0.2 N 35 50 19 27 1020.3 1021.2 0.0
30/08:30am 3.7 -4.8 3.1 96 0.3 NNE 37 50 20 27 1020.3 1021.2 0.0
30/08:00am 4.0 -6.2 3.1 94 0.4 N 46 57 25 31 1020.2 1021.1 0.0
30/07:30am 3.6 -5.3 3.3 98 0.1 N 39 54 21 29 1019.4 1020.3 0.0
30/07:00am 3.2 -5.7 2.9 98 0.1 N 39 48 21 26 1020.1 1021.0 0.0
30/06:30am 2.9 -4.7 2.6 98 0.1 N 32 37 17 20 1020.7 1021.5 0.0
30/06:00am 3.6 -5.4 2.7 94 0.4 N 39 50 21 27 1021.0 1021.9 0.0
30/05:30am 3.5 -5.1 2.8 95 0.3 N 37 50 20 27 1021.2 1022.1 0.0
30/05:00am 3.9 -5.0 3.0 94 0.4 N 39 48 21 26 1021.2 1022.1 0.0
30/04:30am 3.5 -4.7 2.8 95 0.3 N 35 48 19 26 1021.5 1022.4 0.0
30/04:00am 3.3 -4.4 2.4 94 0.4 NNE 32 39 17 21 1021.9 1022.8 0.0
30/03:30am 3.6 -4.0 2.7 94 0.4 N 32 41 17 22 1022.3 1023.2 0.0
30/03:00am 3.7 -4.0 2.5 92 0.5 N 32 41 17 22 1023.0 1023.9 0.0
30/02:30am 3.9 -3.7 2.6 91 0.5 N 32 39 17 21 1023.2 1024.1 0.0
30/02:00am 3.8 -3.8 2.6 92 0.5 N 32 39 17 21 1023.5 1024.4 0.0
30/01:30am 3.8 -3.4 2.9 94 0.4 N 30 39 16 21 1023.9 1024.8 0.0
30/01:00am 3.6 -3.7 2.7 94 0.4 N 30 35 16 19 1024.2 1025.1 0.0
30/12:30am 4.2 -2.6 2.9 91 0.5 N 28 35 15 19 1024.9 1025.9 0.0
30/12:00am 4.3 -2.6 2.8 90 0.6 N 28 35 15 19 1025.2 1026.2 0.0
 
Date/Time
EST
Temp
°C
App
Temp
°C
Dew
Point
Rel
Hum
%
Delta-T
°C
Wind Press
QNH
hPa
Press
MSL
hPa
Rain
since 9 am
mm
Dir
 
Spd
km/h
Gust
km/h
Spd
kts
Gust
kts
29/11:30pm 4.5 -2.0 2.8 89 0.7 N 26 33 14 18 1025.7 1026.6 0.0
29/11:00pm 4.8 -1.7 2.8 87 0.8 N 26 33 14 18 1025.8 1026.7 0.0
29/10:30pm 5.5 -1.3 3.2 85 1.0 N 28 37 15 20 1025.8 1026.7 0.0
29/10:00pm 5.7 -0.6 3.5 86 0.9 N 26 35 14 19 1026.4 1027.3 0.0
29/09:30pm 5.7 -1.0 3.5 86 0.9 N 28 37 15 20 1026.4 1027.3 0.0
29/09:00pm 5.7 -0.6 3.9 88 0.8 N 26 33 14 18 1026.6 1027.5 0.0
29/08:30pm 5.8 -0.5 3.8 87 0.9 N 26 35 14 19 1026.4 1027.3 0.0
29/08:00pm 6.0 -0.2 4.2 88 0.8 N 26 33 14 18 1026.6 1027.5 0.0
29/07:30pm 6.0 0.4 3.5 84 1.1 N 22 32 12 17 1026.9 1027.9 0.0
29/07:00pm 6.2 0.6 3.4 82 1.2 N 22 28 12 15 1026.6 1027.5 0.0
29/06:30pm 6.6 1.3 3.2 79 1.5 N 20 26 11 14 1026.9 1027.9 0.0
29/06:00pm 6.7 1.1 3.3 79 1.5 N 22 26 12 14 1026.9 1027.9 0.0
29/05:30pm 6.9 0.9 3.2 77 1.6 N 24 30 13 16 1026.8 1027.8 0.0
29/05:00pm 7.1 1.1 3.2 76 1.7 N 24 33 13 18 1027.2 1028.2 0.0
29/04:30pm 7.4 1.4 3.3 75 1.8 NNW 24 30 13 16 1027.3 1028.3 0.0
29/04:00pm 7.4 1.4 3.6 77 1.7 NNW 24 30 13 16 1027.4 1028.4 0.0
29/03:30pm 7.9 1.1 3.2 72 2.0 NNW 28 35 15 19 1027.5 1028.5 0.0
29/03:00pm 8.0 1.5 2.7 69 2.3 N 26 33 14 18 1027.4 1028.4 0.0
29/02:30pm 8.3 0.6 2.5 67 2.5 NNW 32 41 17 22 1027.9 1028.8 0.0
29/02:00pm 8.1 0.8 2.4 67 2.4 NNW 30 37 16 20 1028.6 1029.6 0.0
29/01:30pm 8.1 1.7 3.0 70 2.2 N 26 32 14 17 1029.2 1030.2 0.0
29/01:00pm 8.4 2.1 3.8 73 2.0 N 26 32 14 17 1029.7 1030.7 0.0
29/12:30pm 7.8 2.4 4.7 81 1.4 N 22 28 12 15 1030.5 1031.4 0.0
29/12:00pm 7.7 2.4 5.2 84 1.1 N 22 28 12 15 1031.1 1032.1 0.0
29/11:30am 7.4 2.8 6.5 94 0.4 N 20 26 11 14 1031.5 1032.5 0.0
29/11:24am 7.0 2.3 6.1 94 0.4 N 20 26 11 14 1031.8 1032.8 0.0
29/11:04am 6.9 2.5 6.6 98 0.1 NNW 19 24 10 13 1032.2 1033.2 0.0
29/11:00am 6.9 2.3 6.6 98 0.1 NNW 20 24 11 13 1032.1 1033.1 0.0
29/10:30am 6.7 2.1 6.4 98 0.1 N 20 26 11 14 1031.9 1032.9 0.0
29/10:00am 7.0 2.6 6.7 98 0.1 N 19 24 10 13 1032.0 1033.0 0.0
29/09:30am 6.7 2.2 6.0 95 0.3 N 19 22 10 12 1032.2 1033.2 0.0
29/09:00am 5.7 2.2 5.4 98 0.1 N 13 15 7 8 1032.1 1033.1 0.0
29/08:30am 4.3 0.5 4.0 98 0.1 N 13 15 7 8 1032.5 1033.6 0.0
29/08:00am 3.3 -0.3 3.2 99 0.0 N 11 13 6 7 1032.4 1033.5 0.0
29/07:30am 2.8 -0.1 2.7 99 0.0 N 7 9 4 5 1032.2 1033.2 0.0
29/07:00am 4.1 1.4 3.8 98 0.1 N 7 9 4 5 1032.1 1033.1 0.0
29/06:30am 5.2 2.3 4.9 98 0.1 NW 9 11 5 6 1031.8 1032.8 0.0
29/06:00am 6.0 3.3 5.6 97 0.2 N 9 13 5 7 1031.7 1032.7 0.0
29/05:30am 6.1 3.8 5.8 98 0.1 N 7 13 4 7 1031.7 1032.7 0.0
29/05:00am 6.1 3.5 6.0 99 0.0 N 9 13 5 7 1031.9 1032.9 0.0
29/04:30am 6.0 3.4 5.9 99 0.0 NNW 9 11 5 6 1031.8 1032.8 0.0
29/04:00am 6.1 3.1 6.0 99 0.0 NNW 11 11 6 6 1031.9 1032.9 0.0
29/03:30am 6.3 3.3 6.2 99 0.0 N 11 13 6 7 1031.8 1032.8 0.0
29/03:00am 6.0 5.1 5.9 99 0.0 CALM 0 0 0 0 1032.3 1033.3 0.0
29/02:30am 6.0 5.1 5.9 99 0.0 CALM 0 6 0 3 1032.3 1033.3 0.0
29/02:00am 6.0 3.7 5.9 99 0.0 NNE 7 9 4 5 1032.6 1033.7 0.0
29/01:30am 5.8 4.4 5.7 99 0.0 ENE 2 9 1 5 1032.8 1033.8 0.0
29/01:00am 5.8 3.7 5.7 99 0.0 NNE 6 7 3 4 1032.8 1033.8 0.0
29/12:30am 5.4 3.0 5.3 99 0.0 ENE 7 9 4 5 1032.5 1033.6 0.0
29/12:00am 5.5 3.3 5.4 99 0.0 WNW 6 6 3 3 1033.1 1034.1 0.0
 
Date/Time
EST
Temp
°C
App
Temp
°C
Dew
Point
Rel
Hum
%
Delta-T
°C
Wind Press
QNH
hPa
Press
MSL
hPa
Rain
since 9 am
mm
Dir
 
Spd
km/h
Gust
km/h
Spd
kts
Gust
kts
28/11:30pm 6.0 3.7 5.9 99 0.0 W 7 9 4 5 1033.3 1034.3 0.0
28/11:00pm 6.4 3.8 6.3 99 0.0 WNW 9 11 5 6 1033.6 1034.6 0.0
28/10:30pm 6.8 4.3 6.5 98 0.1 W 9 11 5 6 1033.5 1034.5 0.0
28/10:00pm 7.0 5.0 6.9 99 0.0 W 7 11 4 6 1033.7 1034.7 0.0
28/09:30pm 7.0 4.5 6.7 98 0.1 WNW 9 11 5 6 1034.0 1035.0 0.0
28/09:00pm 7.5 5.5 7.2 98 0.1 WSW 7 11 4 6 1034.0 1035.0 0.0
28/08:30pm 7.4 5.0 7.0 97 0.2 W 9 9 5 5 1033.9 1034.9 0.0
28/08:00pm 7.7 5.6 6.8 94 0.4 W 7 11 4 6 1033.8 1034.8 0.0
28/07:30pm 7.7 6.3 7.3 97 0.2 WSW 4 6 2 3 1033.8 1034.8 0.0
28/07:00pm 7.4 5.0 7.0 97 0.2 WNW 9 11 5 6 1033.6 1034.6 0.0
28/06:30pm 7.8 6.6 6.6 92 0.6 NW 2 6 1 3 1033.6 1034.6 0.0
28/06:00pm 8.0 6.0 6.3 89 0.8 NW 6 9 3 5 1033.4 1034.4 0.0
28/05:30pm 8.5 6.2 5.8 83 1.3 WNW 7 9 4 5 1033.2 1034.2 0.0
28/05:00pm 8.9 5.7 5.3 78 1.6 WSW 11 15 6 8 1033.3 1034.3 0.0
28/04:30pm 9.0 5.6 5.7 80 1.5 W 13 17 7 9 1033.3 1034.3 0.0
28/04:00pm 9.2 5.4 5.9 80 1.5 W 15 19 8 10 1033.2 1034.2 0.0
28/03:30pm 9.6 5.4 5.6 76 1.9 WSW 17 20 9 11 1033.1 1034.1 0.0
28/03:00pm 10.3 6.4 5.5 72 2.2 WSW 15 20 8 11 1033.0 1034.0 0.0
28/02:30pm 11.5 7.7 6.0 69 2.6 W 15 24 8 13 1033.0 1034.0 0.0
28/02:00pm 10.0 5.4 5.6 74 2.0 W 19 26 10 14 1033.3 1034.3 0.0
28/01:30pm 9.9 5.5 4.7 70 2.4 W 17 22 9 12 1033.5 1034.5 0.0

Other Formats:

Comma delimited format used in spreadsheet applications
http://www.bom.gov.au/fwo/IDV60801/IDV60801.94852.axf

JavaScript Object Notation format (JSON) in row-major order
http://www.bom.gov.au/fwo/IDV60801/IDV60801.94852.json